createdAt,value
2023-01-10T00:03:56.680Z,12.65
2023-01-10T00:08:58.086Z,12.32
2023-01-10T00:13:59.817Z,11.75
2023-01-10T00:19:01.251Z,11.18
2023-01-10T00:24:17.515Z,10.63
2023-01-10T00:29:20.380Z,11.02
2023-01-10T00:34:21.811Z,11.25
2023-01-10T00:39:27.071Z,11.82
2023-01-10T00:44:28.486Z,12.10
2023-01-10T00:49:29.945Z,12.57
2023-01-10T00:54:31.398Z,12.88
2023-01-10T00:59:33.223Z,12.70
2023-01-10T01:04:35.241Z,13.40
2023-01-10T01:09:56.703Z,13.05
2023-01-10T01:14:58.227Z,13.88
2023-01-10T01:19:59.664Z,13.40
2023-01-10T01:25:01.144Z,12.52
2023-01-10T01:30:02.751Z,12.77
2023-01-10T01:35:05.685Z,13.35
2023-01-10T01:40:08.920Z,13.35
2023-01-10T01:45:22.699Z,12.25
2023-01-10T01:50:35.859Z,11.23
2023-01-10T01:55:39.761Z,11.02
2023-01-10T02:00:41.697Z,11.05
2023-01-10T02:05:44.965Z,10.02
2023-01-10T02:11:11.573Z,9.50
2023-01-10T02:16:13.423Z,10.70
2023-01-10T02:21:38.403Z,9.45
2023-01-10T02:26:57.843Z,10.23
2023-01-10T02:32:18.763Z,10.23
2023-01-10T02:37:39.753Z,10.57
2023-01-10T02:43:00.940Z,10.60
2023-01-10T02:48:02.676Z,10.55
2023-01-10T02:53:16.318Z,11.95
2023-01-10T02:58:36.586Z,10.40
2023-01-10T03:04:11.027Z,10.50
2023-01-10T03:09:25.829Z,10.07
2023-01-10T03:14:30.114Z,8.57
2023-01-10T03:19:38.274Z,8.65
2023-01-10T03:24:49.209Z,7.70
2023-01-10T03:30:25.080Z,6.85
2023-01-10T03:35:44.234Z,6.65
2023-01-10T03:40:58.101Z,6.10
2023-01-10T03:46:09.296Z,5.57
2023-01-10T03:51:12.689Z,5.50
2023-01-10T03:56:15.093Z,4.40
2023-01-10T04:01:17.282Z,4.68
2023-01-10T04:06:20.207Z,5.00
2023-01-10T04:11:21.705Z,4.53
2023-01-10T04:16:23.189Z,4.25
2023-01-10T04:21:24.617Z,4.30
2023-01-10T04:26:26.152Z,4.53
2023-01-10T04:31:27.572Z,4.55
2023-01-10T04:36:29.039Z,4.65
2023-01-10T04:41:31.657Z,4.78
2023-01-10T04:46:33.323Z,3.83
2023-01-10T04:51:34.774Z,4.97
2023-01-10T04:56:36.219Z,4.45
2023-01-10T05:01:39.245Z,4.55
2023-01-10T05:06:40.846Z,4.30
2023-01-10T05:11:42.285Z,4.00
2023-01-10T05:16:43.736Z,3.97
2023-01-10T05:21:45.158Z,4.60
2023-01-10T05:26:46.572Z,4.78
2023-01-10T05:31:51.106Z,4.53
2023-01-10T05:36:52.758Z,5.25
2023-01-10T05:41:54.183Z,5.10
2023-01-10T05:46:55.656Z,5.25
2023-01-10T05:51:57.063Z,4.72
2023-01-10T05:56:58.512Z,4.95
2023-01-10T06:02:00.022Z,4.70
2023-01-10T06:07:01.612Z,5.32
2023-01-10T06:12:03.192Z,5.78
2023-01-10T06:17:08.555Z,4.90
2023-01-10T06:22:10.044Z,4.30
2023-01-10T06:27:11.485Z,5.22
2023-01-10T06:32:12.951Z,4.90
2023-01-10T06:37:14.378Z,4.65
2023-01-10T06:42:15.850Z,5.30
2023-01-10T06:47:17.299Z,7.45
2023-01-10T06:52:18.808Z,5.18
2023-01-10T06:57:20.868Z,5.82
2023-01-10T07:02:22.417Z,5.22
2023-01-10T07:07:23.893Z,5.43
2023-01-10T07:12:25.403Z,4.68
2023-01-10T07:17:26.840Z,5.20
2023-01-10T07:22:28.251Z,5.38
2023-01-10T07:27:32.812Z,4.40
2023-01-10T07:32:34.305Z,5.70
2023-01-10T07:37:35.789Z,6.40
2023-01-10T07:42:37.209Z,5.82
2023-01-10T07:47:38.808Z,5.75
2023-01-10T07:52:40.352Z,5.35
2023-01-10T07:57:41.788Z,5.28
2023-01-10T08:02:43.472Z,4.57
2023-01-10T08:07:45.065Z,5.00
2023-01-10T08:12:48.212Z,5.10
2023-01-10T08:17:49.702Z,4.95
2023-01-10T08:22:51.212Z,4.68
2023-01-10T08:27:53.001Z,4.88
2023-01-10T08:32:54.543Z,4.70
2023-01-10T08:38:00.162Z,4.53
2023-01-10T08:43:07.628Z,4.32
2023-01-10T08:48:10.225Z,4.43
2023-01-10T08:53:13.705Z,3.83
2023-01-10T08:58:15.638Z,4.13
2023-01-10T09:03:17.191Z,3.97
2023-01-10T09:08:18.665Z,4.63
2023-01-10T09:13:20.321Z,3.92
2023-01-10T09:18:21.856Z,4.60
2023-01-10T09:23:23.744Z,4.53
2023-01-10T09:28:25.227Z,3.45
2023-01-10T09:33:35.007Z,3.75
2023-01-10T09:38:46.538Z,3.60
2023-01-10T09:43:53.820Z,3.10
2023-01-10T09:49:15.695Z,3.42
2023-01-10T09:54:23.596Z,3.83
2023-01-10T09:59:26.949Z,3.85
2023-01-10T10:04:37.503Z,3.72
2023-01-10T10:09:39.275Z,5.25
2023-01-10T10:14:58.984Z,4.40
2023-01-10T10:20:06.364Z,5.20
2023-01-10T10:25:37.690Z,4.28
2023-01-10T10:31:09.244Z,4.82
2023-01-10T10:36:29.317Z,4.88
2023-01-10T10:41:43.734Z,4.45
2023-01-10T10:46:45.482Z,4.53
2023-01-10T10:51:52.971Z,5.30
2023-01-10T10:56:56.096Z,4.65
2023-01-10T11:01:57.790Z,4.80
2023-01-10T11:07:00.716Z,4.78
2023-01-10T11:12:03.728Z,4.93
2023-01-10T11:17:25.582Z,4.45
2023-01-10T11:22:40.263Z,4.10
2023-01-10T11:27:52.235Z,4.85
2023-01-10T11:33:00.709Z,4.72
2023-01-10T11:38:17.101Z,4.87
2023-01-10T11:43:41.515Z,4.38
2023-01-10T11:49:04.901Z,4.93
2023-01-10T11:54:11.654Z,4.30
2023-01-10T11:59:16.604Z,4.70
2023-01-10T12:04:21.149Z,4.65
2023-01-10T12:09:42.228Z,4.70
2023-01-10T12:14:44.314Z,3.85
2023-01-10T12:19:45.794Z,4.47
2023-01-10T12:24:51.097Z,5.00
2023-01-10T12:30:11.598Z,4.53
2023-01-10T12:35:20.848Z,4.60
2023-01-10T12:40:37.322Z,4.10
2023-01-10T12:45:56.831Z,4.80
2023-01-10T12:51:04.745Z,4.30
2023-01-10T12:56:11.514Z,4.78
2023-01-10T13:01:17.244Z,4.60
2023-01-10T13:06:31.442Z,5.28
2023-01-10T13:11:40.422Z,4.85
2023-01-10T13:16:52.676Z,5.32
2023-01-10T13:22:34.985Z,4.65
2023-01-10T13:27:36.516Z,4.45
2023-01-10T13:32:38.905Z,5.00
2023-01-10T13:37:43.113Z,5.53
2023-01-10T13:43:03.189Z,4.80
2023-01-10T13:48:05.595Z,4.93
2023-01-10T13:53:08.450Z,4.55
2023-01-10T13:58:09.811Z,5.05
2023-01-10T14:03:37.731Z,4.97
2023-01-10T14:08:40.691Z,4.90
2023-01-10T14:13:52.945Z,5.47
2023-01-10T14:18:54.531Z,5.80
2023-01-10T14:23:57.958Z,5.63
2023-01-10T14:29:02.831Z,5.72
2023-01-10T14:34:06.107Z,6.07
2023-01-10T14:39:08.131Z,5.40
2023-01-10T14:44:24.088Z,6.00
2023-01-10T14:49:35.219Z,5.85
2023-01-10T14:54:36.688Z,6.13
2023-01-10T14:59:38.724Z,5.93
2023-01-10T15:04:52.163Z,5.90
2023-01-10T15:09:57.248Z,5.75
2023-01-10T15:15:11.749Z,6.57
2023-01-10T15:20:17.701Z,5.90
2023-01-10T15:25:19.061Z,6.03
2023-01-10T15:30:23.054Z,7.05
2023-01-10T15:35:36.149Z,8.02
2023-01-10T15:40:40.063Z,8.88
2023-01-10T15:45:42.820Z,10.50
2023-01-10T15:51:01.701Z,8.48
2023-01-10T15:56:15.077Z,10.52
2023-01-10T16:01:16.927Z,10.50
2023-01-10T16:06:29.751Z,10.13
2023-01-10T16:12:08.375Z,11.40
2023-01-10T16:17:11.395Z,11.63
2023-01-10T16:22:17.863Z,8.93
2023-01-10T16:27:19.358Z,9.80
2023-01-10T16:32:20.819Z,9.48
2023-01-10T16:37:22.278Z,8.98
2023-01-10T16:42:42.043Z,7.88
2023-01-10T16:47:43.454Z,9.45
2023-01-10T16:52:44.862Z,9.30
2023-01-10T16:57:47.911Z,9.45
2023-01-10T17:02:49.441Z,9.27
2023-01-10T17:07:50.888Z,10.73
2023-01-10T17:12:52.487Z,10.90
2023-01-10T17:17:53.973Z,12.73
2023-01-10T17:22:55.385Z,13.73
2023-01-10T17:27:56.888Z,12.55
2023-01-10T17:32:58.689Z,12.20
2023-01-10T17:38:00.107Z,10.75
2023-01-10T17:43:01.552Z,11.18
2023-01-10T17:48:02.983Z,9.98
2023-01-10T17:53:05.127Z,8.80
2023-01-10T17:58:06.606Z,7.60
2023-01-10T18:03:08.717Z,8.52
2023-01-10T18:08:10.161Z,8.40
2023-01-10T18:13:12.678Z,7.82
2023-01-10T18:18:14.827Z,8.63
2023-01-10T18:23:23.503Z,9.70
2023-01-10T18:28:39.536Z,10.67
2023-01-10T18:33:42.309Z,10.00
2023-01-10T18:38:44.487Z,8.60
2023-01-10T18:43:46.336Z,8.38
2023-01-10T18:48:51.292Z,7.70
2023-01-10T18:53:53.150Z,7.80
2023-01-10T18:58:55.682Z,7.13
2023-01-10T19:03:57.298Z,7.18
2023-01-10T19:08:58.726Z,7.75
2023-01-10T19:14:00.211Z,7.45
2023-01-10T19:19:09.312Z,6.35
2023-01-10T19:24:29.627Z,6.30
2023-01-10T19:29:31.522Z,6.95
2023-01-10T19:34:33.057Z,6.57
2023-01-10T19:39:35.217Z,7.22
2023-01-10T19:44:36.712Z,6.20
2023-01-10T19:49:38.153Z,6.60
2023-01-10T19:54:39.680Z,6.43
2023-01-10T19:59:41.771Z,6.80
2023-01-10T20:04:43.237Z,6.65
2023-01-10T20:09:44.638Z,7.38
2023-01-10T20:14:46.129Z,7.28
2023-01-10T20:19:48.638Z,6.65
2023-01-10T20:24:50.215Z,6.75
2023-01-10T20:29:51.646Z,7.10
2023-01-10T20:34:53.098Z,6.85
2023-01-10T20:39:55.191Z,6.85
2023-01-10T20:44:56.640Z,8.02
2023-01-10T20:49:58.063Z,8.18
2023-01-10T20:54:59.488Z,8.30
2023-01-10T21:00:00.951Z,10.25
2023-01-10T21:05:02.454Z,10.85
2023-01-10T21:10:04.132Z,11.80
2023-01-10T21:15:05.921Z,10.82
2023-01-10T21:20:08.667Z,8.93
2023-01-10T21:25:10.129Z,9.27
2023-01-10T21:30:12.155Z,10.15
2023-01-10T21:35:13.824Z,10.07
2023-01-10T21:40:15.565Z,9.98
2023-01-10T21:45:18.252Z,11.10
2023-01-10T21:50:22.344Z,9.57
2023-01-10T21:55:24.077Z,10.73
2023-01-10T22:00:25.701Z,10.05
2023-01-10T22:05:27.313Z,10.10
2023-01-10T22:10:30.167Z,10.07
2023-01-10T22:15:31.970Z,11.10
2023-01-10T22:20:33.434Z,11.98
2023-01-10T22:25:34.911Z,12.68
2023-01-10T22:30:36.356Z,13.60
2023-01-10T22:35:37.776Z,13.48
2023-01-10T22:40:39.214Z,14.68
2023-01-10T22:45:42.050Z,16.17
2023-01-10T22:50:49.000Z,14.07
2023-01-10T22:55:50.487Z,16.25
2023-01-10T23:06:11.868Z,24.45
2023-01-10T23:11:16.365Z,24.17
2023-01-10T23:16:22.053Z,24.65
2023-01-10T23:21:25.143Z,17.33
2023-01-10T23:26:26.651Z,16.08
2023-01-10T23:31:29.609Z,13.70
2023-01-10T23:36:31.376Z,12.32
2023-01-10T23:41:32.808Z,13.57
2023-01-10T23:46:34.237Z,11.40
2023-01-10T23:51:37.362Z,11.48
2023-01-10T23:56:38.774Z,10.90
